Harp Township, Illinois
Current Conditions -  °F | °C
As of 3:55 AM on Friday 31 Oct 2014 (Local Time) from KAAA Reporting Station
Overcast Overcast  
Wind Chill: 44°   Ceiling: 4800
Heat Index: 46°   Visibility: 7mi
Dew Point: 43°   Wind: 5mph
Humidity: 90%   Direction: 310°NW
Pressure: 30.07"   Gusts: NA
Location:  40.143°N, 88.9637°W
Report Text: KAAA 310855Z AUTO 31004KT 7SM OVC048 08/06 A3007 RMK AO2 T00770061
Loading
Personal Weather Stations






























Interactive Weather Map New forecast layout! Learn more

10-Day Weather Forecast

Advertisements
Track Severe Weather on mobile